Time;durP1;ratioP1;P1;durP2;ratioP2;P2;SDS_P1;SDS_P2;PMS_P1;PMS_P2;Temp;Humidity;BMP_temperature;BMP_pressure;BME280_temperature;BME280_humidity;BME280_pressure;Samples;Min_cycle;Max_cycle;Signal;HPM_P1;HPM_P2
2022/06/04 00:01:50;;;;;;;6.40;5.90;;;15.90;99.90;;;;;;5037709;28;20459;-58
2022/06/04 00:04:18;;;;;;;6.37;5.87;;;15.80;99.90;;;;;;5036960;28;20467;-59
2022/06/04 00:06:46;;;;;;;5.40;5.00;;;15.80;99.90;;;;;;5017524;28;20753;-59
2022/06/04 00:09:14;;;;;;;6.30;5.70;;;15.80;99.90;;;;;;5025397;28;20491;-59
2022/06/04 00:17:15;;;;;;;5.50;5.07;;;15.60;99.90;;;;;;5017995;28;20473;-58
2022/06/04 00:19:42;;;;;;;6.97;6.03;;;15.60;99.90;;;;;;5018292;28;20435;-58
2022/06/04 00:22:13;;;;;;;9.97;5.40;;;15.50;99.90;;;;;;5031020;28;20521;-59
2022/06/04 00:24:42;;;;;;;6.30;5.40;;;15.50;99.90;;;;;;5038079;28;20467;-58
2022/06/04 00:27:14;;;;;;;5.80;5.40;;;15.50;99.90;;;;;;5038248;28;20851;-59
2022/06/04 00:29:45;;;;;;;6.43;5.77;;;15.50;99.90;;;;;;5035315;28;20792;-58
2022/06/04 00:32:12;;;;;;;6.63;5.73;;;15.40;99.90;;;;;;5016749;28;20464;-58
2022/06/04 00:34:42;;;;;;;5.90;5.43;;;15.40;99.90;;;;;;5019583;28;20468;-58
2022/06/04 00:37:10;;;;;;;8.50;5.80;;;15.40;99.90;;;;;;5017424;28;20503;-58
2022/06/04 00:39:37;;;;;;;6.00;5.50;;;15.30;99.90;;;;;;5017921;28;20463;-58
2022/06/04 00:42:10;;;;;;;6.63;6.03;;;15.30;99.90;;;;;;5017193;28;20534;-59
2022/06/04 00:45:13;;;;;;;5.60;5.20;;;15.20;99.90;;;;;;5034060;28;20518;-58
2022/06/04 00:47:44;;;;;;;7.20;5.30;;;15.20;99.90;;;;;;5029169;28;20528;-58
2022/06/04 00:50:13;;;;;;;6.40;5.70;;;15.20;99.90;;;;;;5037618;28;20459;-59
2022/06/04 00:52:41;;;;;;;6.30;5.70;;;15.10;99.90;;;;;;5034874;28;20470;-59
2022/06/04 00:55:10;;;;;;;6.57;5.87;;;15.10;99.90;;;;;;5035817;28;20471;-58
2022/06/04 00:57:53;;;;;;;6.60;6.10;;;15.10;99.90;;;;;;5037601;28;20764;-58
2022/06/04 01:00:24;;;;;;;6.57;5.00;;;15.00;99.90;;;;;;5037052;28;20467;-59
2022/06/04 01:03:13;;;;;;;6.77;5.57;;;15.00;99.90;;;;;;5019824;28;20475;-58
2022/06/04 01:05:50;;;;;;;6.50;5.40;;;14.90;99.90;;;;;;5030317;28;20469;-58
2022/06/04 01:08:49;;;;;;;5.23;4.83;;;14.90;99.90;;;;;;5019563;28;20469;-58
2022/06/04 01:11:23;;;;;;;7.33;6.37;;;14.90;99.90;;;;;;4995374;28;20575;-58
2022/06/04 01:14:13;;;;;;;6.00;5.47;;;14.90;99.90;;;;;;5025661;28;20851;-58
2022/06/04 01:16:49;;;;;;;5.40;5.00;;;14.80;99.90;;;;;;5032285;28;20503;-58
2022/06/04 01:19:41;;;;;;;5.97;5.37;;;14.80;99.90;;;;;;5037404;28;20505;-58
2022/06/04 01:22:23;;;;;;;6.03;5.53;;;14.80;99.90;;;;;;5031271;28;20463;-58
2022/06/04 01:25:08;;;;;;;6.30;5.80;;;14.80;99.90;;;;;;5037338;28;20721;-59
2022/06/04 01:27:42;;;;;;;6.03;5.50;;;14.70;99.90;;;;;;5025776;28;20463;-58
2022/06/04 01:30:14;;;;;;;6.70;6.20;;;14.70;99.90;;;;;;5019311;28;20901;-59
2022/06/04 01:32:45;;;;;;;6.73;6.13;;;14.70;99.90;;;;;;5016042;28;20498;-58
2022/06/04 01:35:18;;;;;;;8.87;6.37;;;14.70;99.90;;;;;;5017208;28;20460;-58
2022/06/04 01:37:50;;;;;;;7.30;6.60;;;14.70;99.90;;;;;;5017929;28;20495;-58
2022/06/04 01:43:12;;;;;;;6.20;5.60;;;14.50;99.90;;;;;;5029419;28;20450;-59
2022/06/04 01:45:42;;;;;;;7.50;6.77;;;14.50;99.90;;;;;;5037372;28;20499;-59
2022/06/04 01:48:12;;;;;;;6.30;5.80;;;14.50;99.90;;;;;;5031291;28;20468;-59
2022/06/04 01:50:44;;;;;;;6.37;5.70;;;14.40;99.90;;;;;;5020900;28;20463;-59
2022/06/04 01:53:14;;;;;;;6.77;6.17;;;14.40;99.90;;;;;;5020645;28;20546;-59
2022/06/04 01:55:47;;;;;;;6.80;6.10;;;14.30;99.90;;;;;;5011009;28;20464;-59
2022/06/04 01:58:19;;;;;;;6.73;6.13;;;14.30;99.90;;;;;;5022383;28;20758;-59
2022/06/04 02:00:54;;;;;;;6.40;5.90;;;14.20;99.90;;;;;;5028104;28;20475;-58
2022/06/04 02:03:29;;;;;;;7.17;6.47;;;14.20;99.90;;;;;;5028261;28;20469;-59
2022/06/04 02:06:01;;;;;;;7.17;6.47;;;14.20;99.90;;;;;;5040855;28;20463;-58
2022/06/04 02:08:34;;;;;;;6.33;5.83;;;14.10;99.90;;;;;;5037513;28;20753;-58
2022/06/04 02:11:08;;;;;;;7.07;6.50;;;14.10;99.90;;;;;;5020867;28;20474;-59
2022/06/04 02:13:40;;;;;;;7.37;6.33;;;14.00;99.90;;;;;;5020623;28;20459;-58
2022/06/04 02:16:13;;;;;;;7.27;6.20;;;13.90;1.00;;;;;;5020225;28;20807;-58
2022/06/04 02:18:41;;;;;;;6.00;5.40;;;13.90;1.00;;;;;;5020226;28;20767;-58
2022/06/04 02:21:08;;;;;;;6.20;5.63;;;13.90;1.00;;;;;;5022488;28;20467;-57
2022/06/04 02:23:36;;;;;;;5.70;5.20;;;13.90;1.00;;;;;;5029852;28;20518;-59
2022/06/04 02:26:05;;;;;;;14.93;6.97;;;13.80;1.00;;;;;;5036340;28;20470;-59
2022/06/04 02:28:32;;;;;;;6.77;6.27;;;13.80;1.00;;;;;;5037399;28;20463;-58
2022/06/04 02:31:07;;;;;;;7.43;6.57;;;13.80;1.00;;;;;;5019946;28;20896;-59
2022/06/04 02:33:45;;;;;;;7.40;6.70;;;13.80;1.00;;;;;;5030329;28;20500;-59
2022/06/04 02:36:22;;;;;;;6.50;6.00;;;13.70;1.00;;;;;;5036638;28;20491;-59
2022/06/04 02:38:56;;;;;;;6.50;5.90;;;13.70;1.00;;;;;;5025370;28;20553;-59
2022/06/04 02:41:28;;;;;;;7.13;6.43;;;13.60;1.00;;;;;;5026401;28;20464;-59
2022/06/04 02:44:02;;;;;;;7.00;6.30;;;13.70;1.00;;;;;;5032361;28;20464;-57
2022/06/04 02:46:41;;;;;;;7.87;6.30;;;13.60;1.00;;;;;;5026782;28;20810;-59
2022/06/04 02:49:17;;;;;;;8.40;6.47;;;13.60;1.00;;;;;;5024627;28;20463;-59
2022/06/04 02:51:46;;;;;;;7.93;6.20;;;13.60;1.00;;;;;;5022708;28;20469;-59
2022/06/04 02:54:18;;;;;;;7.57;6.83;;;13.60;1.00;;;;;;5035587;28;20521;-59
2022/06/04 02:56:55;;;;;;;7.67;6.90;;;13.50;1.00;;;;;;5019900;28;20795;-59
2022/06/04 02:59:23;;;;;;;7.40;6.30;;;13.50;1.00;;;;;;5031002;28;20462;-59
2022/06/04 03:01:54;;;;;;;6.03;5.40;;;13.50;1.00;;;;;;5036639;28;20497;-59
2022/06/04 03:04:22;;;;;;;7.30;6.63;;;13.50;1.00;;;;;;5020003;28;20468;-60
2022/06/04 03:07:05;;;;;;;7.10;6.60;;;13.50;1.00;;;;;;5033235;28;20487;-60
2022/06/04 03:09:32;;;;;;;6.53;5.90;;;13.50;1.00;;;;;;5034049;28;20462;-59
2022/06/04 03:12:02;;;;;;;8.40;7.50;;;13.40;1.00;;;;;;5035846;28;20759;-59
2022/06/04 03:14:29;;;;;;;9.57;7.20;;;13.40;1.00;;;;;;5036581;28;20495;-59
2022/06/04 03:16:59;;;;;;;7.90;6.73;;;13.30;1.00;;;;;;5023062;28;20483;-59
2022/06/04 03:19:26;;;;;;;7.53;6.83;;;13.40;1.00;;;;;;5039049;28;20562;-58
2022/06/04 03:21:53;;;;;;;7.13;6.50;;;13.30;1.00;;;;;;5020373;28;20480;-58
2022/06/04 03:24:21;;;;;;;6.70;6.07;;;13.40;1.00;;;;;;5019337;28;20919;-58
2022/06/04 03:26:48;;;;;;;7.87;6.97;;;13.30;1.00;;;;;;5018286;28;20492;-59
2022/06/04 03:29:15;;;;;;;7.70;7.03;;;13.30;1.00;;;;;;5024038;28;20467;-60
2022/06/04 03:31:42;;;;;;;9.30;7.20;;;13.30;1.00;;;;;;5026928;28;20463;-59
2022/06/04 03:34:13;;;;;;;6.90;6.30;;;13.30;1.00;;;;;;5028090;28;20532;-59
2022/06/04 03:36:40;;;;;;;8.93;7.60;;;13.30;1.00;;;;;;5020121;28;20491;-54
2022/06/04 03:39:09;;;;;;;7.00;6.40;;;13.30;1.00;;;;;;5018625;28;20460;-60
2022/06/04 03:41:39;;;;;;;7.20;6.60;;;13.30;1.00;;;;;;5025641;28;20495;-60
2022/06/04 03:44:06;;;;;;;8.57;7.77;;;13.30;1.00;;;;;;5017698;28;20753;-60
2022/06/04 03:46:33;;;;;;;7.73;7.03;;;13.30;1.00;;;;;;5037043;28;20465;-59
2022/06/04 03:49:01;;;;;;;8.27;7.40;;;13.30;1.00;;;;;;5019211;28;20656;-59
2022/06/04 03:51:31;;;;;;;7.47;6.87;;;13.30;1.00;;;;;;5017690;28;20469;-56
2022/06/04 03:53:58;;;;;;;9.40;7.30;;;13.30;1.00;;;;;;5030808;28;20463;-58
2022/06/04 03:56:28;;;;;;;8.20;7.37;;;13.30;1.00;;;;;;5017921;28;20472;-59
2022/06/04 03:58:58;;;;;;;10.40;7.30;;;13.30;1.00;;;;;;5025938;28;20944;-59
2022/06/04 04:01:30;;;;;;;8.27;7.57;;;13.40;1.00;;;;;;5025633;28;20492;-59
2022/06/04 04:03:59;;;;;;;9.60;8.20;;;13.40;1.00;;;;;;5019734;28;20475;-59
2022/06/04 04:06:34;;;;;;;8.90;7.13;;;13.40;1.00;;;;;;5025500;28;20525;-59
2022/06/04 04:09:02;;;;;;;9.30;8.03;;;13.40;1.00;;;;;;5026526;28;20467;-59
2022/06/04 04:11:29;;;;;;;7.53;6.93;;;13.40;1.00;;;;;;5032889;28;20490;-59
2022/06/04 04:13:56;;;;;;;8.33;7.53;;;13.40;1.00;;;;;;5022632;28;20464;-59
2022/06/04 04:16:25;;;;;;;9.50;8.03;;;13.50;1.00;;;;;;5018035;28;20471;-58
2022/06/04 04:18:52;;;;;;;8.43;7.70;;;13.50;1.00;;;;;;5017463;28;20468;-59
2022/06/04 04:21:21;;;;;;;8.90;8.00;;;13.50;1.00;;;;;;5018097;28;20554;-59
2022/06/04 04:23:53;;;;;;;8.03;7.23;;;13.60;1.00;;;;;;5020462;28;20476;-59
2022/06/04 04:26:20;;;;;;;8.93;7.60;;;13.60;1.00;;;;;;5018146;28;20893;-59
2022/06/04 04:28:47;;;;;;;8.33;7.63;;;13.60;1.00;;;;;;5035558;28;20887;-59
2022/06/04 04:31:17;;;;;;;8.17;7.47;;;13.60;1.00;;;;;;5022263;28;20533;-59
2022/06/04 04:33:47;;;;;;;8.33;7.10;;;13.60;1.00;;;;;;5036124;28;20841;-59
2022/06/04 04:36:14;;;;;;;7.00;6.33;;;13.60;1.00;;;;;;5025096;28;20472;-59
2022/06/04 04:38:41;;;;;;;7.60;7.00;;;13.70;1.00;;;;;;5021262;28;20488;-59
2022/06/04 04:41:13;;;;;;;7.63;7.00;;;13.80;1.00;;;;;;5021639;28;20472;-59
2022/06/04 04:43:41;;;;;;;9.70;7.60;;;13.80;1.00;;;;;;5016299;28;20702;-59
2022/06/04 04:46:12;;;;;;;8.77;7.87;;;13.80;1.00;;;;;;5016824;28;20566;-59
2022/06/04 04:48:42;;;;;;;7.53;6.53;;;13.90;1.00;;;;;;5017322;28;20460;-59
2022/06/04 04:51:14;;;;;;;10.03;7.60;;;13.90;1.00;;;;;;5016408;28;20515;-59
2022/06/04 04:53:41;;;;;;;8.43;7.63;;;13.90;1.00;;;;;;5016908;28;20464;-59
2022/06/04 04:56:08;;;;;;;10.03;7.97;;;14.00;1.00;;;;;;5015881;28;20464;-59
2022/06/04 04:58:37;;;;;;;8.43;7.63;;;14.10;1.00;;;;;;5015539;28;20506;-59
2022/06/04 05:01:04;;;;;;;7.73;7.07;;;14.10;1.00;;;;;;5016154;28;20899;-59
2022/06/04 05:03:31;;;;;;;9.47;8.23;;;14.20;1.00;;;;;;5001222;28;20871;-59
2022/06/04 05:06:00;;;;;;;12.50;7.50;;;14.30;1.00;;;;;;5014539;28;20472;-60
2022/06/04 05:08:27;;;;;;;7.20;6.57;;;14.40;1.00;;;;;;5014157;28;20491;-59
2022/06/04 05:10:54;;;;;;;8.23;7.43;;;14.40;1.00;;;;;;5015594;28;20439;-60
2022/06/04 05:13:24;;;;;;;8.47;7.50;;;14.50;1.00;;;;;;5014548;28;20815;-60
2022/06/04 05:15:52;;;;;;;8.03;7.23;;;14.40;1.00;;;;;;5014924;28;20522;-58
2022/06/04 05:18:19;;;;;;;9.90;7.67;;;14.40;1.00;;;;;;5017861;28;20496;-60
2022/06/04 05:20:47;;;;;;;7.27;6.67;;;14.50;1.00;;;;;;5013490;28;20476;-59
2022/06/04 05:23:16;;;;;;;7.90;7.20;;;14.50;1.00;;;;;;5013530;28;20472;-60
2022/06/04 05:25:44;;;;;;;8.17;6.47;;;14.70;1.00;;;;;;5014287;28;20888;-60
2022/06/04 05:28:15;;;;;;;7.93;7.03;;;14.80;1.00;;;;;;5012636;28;20464;-59
2022/06/04 05:30:42;;;;;;;6.97;6.30;;;14.90;1.00;;;;;;5016390;28;20464;-60
2022/06/04 05:33:10;;;;;;;9.00;7.13;;;15.10;1.00;;;;;;5016007;28;20495;-59
2022/06/04 05:35:38;;;;;;;8.60;6.90;;;15.30;99.90;;;;;;5025374;28;20889;-60
2022/06/04 05:38:06;;;;;;;7.40;6.70;;;15.40;99.90;;;;;;5022935;28;20484;-60
2022/06/04 05:40:33;;;;;;;8.30;7.53;;;15.40;99.90;;;;;;5031842;28;20834;-63
2022/06/04 05:43:00;;;;;;;7.97;7.00;;;15.40;99.90;;;;;;5033587;28;20976;-63
2022/06/04 05:45:29;;;;;;;7.77;7.07;;;15.60;99.90;;;;;;4997765;28;20519;-63
2022/06/04 05:47:56;;;;;;;7.87;7.07;;;15.50;99.90;;;;;;5005106;28;20464;-63
2022/06/04 05:50:24;;;;;;;7.63;7.03;;;15.50;99.90;;;;;;5016859;28;20901;-63
2022/06/04 05:52:52;;;;;;;6.53;6.03;;;15.70;99.90;;;;;;5030058;28;20499;-63
2022/06/04 05:55:19;;;;;;;7.70;7.07;;;15.80;99.90;;;;;;5017731;28;20471;-63
2022/06/04 05:57:46;;;;;;;6.33;5.73;;;15.70;99.90;;;;;;5032330;28;20500;-62
2022/06/04 06:00:18;;;;;;;6.80;6.30;;;15.90;99.90;;;;;;5022448;28;20872;-63
2022/06/04 06:02:45;;;;;;;7.23;6.63;;;16.10;99.90;;;;;;5036538;28;20463;-62
2022/06/04 06:05:12;;;;;;;6.50;5.90;;;16.30;99.90;;;;;;5033895;28;20467;-63
2022/06/04 06:07:42;;;;;;;7.57;6.90;;;16.50;99.90;;;;;;5036900;28;20462;-63
2022/06/04 06:10:10;;;;;;;8.63;7.17;;;16.40;99.90;;;;;;5016435;28;20464;-63
2022/06/04 06:12:37;;;;;;;7.47;6.77;;;16.50;99.90;;;;;;5018997;28;20460;-62
2022/06/04 06:15:05;;;;;;;6.97;6.40;;;16.60;99.90;;;;;;5027278;28;20434;-63
2022/06/04 06:17:32;;;;;;;6.97;6.37;;;16.50;99.90;;;;;;5025189;28;20572;-63
2022/06/04 06:19:59;;;;;;;7.63;6.93;;;16.50;99.90;;;;;;5022180;28;20470;-62
2022/06/04 06:22:26;;;;;;;6.87;6.20;;;16.50;99.90;;;;;;5029984;28;20467;-63
2022/06/04 06:24:58;;;;;;;7.53;6.57;;;16.60;99.90;;;;;;5032247;28;20464;-62
2022/06/04 06:27:25;;;;;;;7.67;6.10;;;16.50;99.90;;;;;;5017023;28;20597;-62
2022/06/04 06:29:52;;;;;;;7.77;6.30;;;16.80;99.90;;;;;;5020575;28;20473;-63
2022/06/04 06:32:21;;;;;;;7.27;6.50;;;16.90;99.90;;;;;;5036393;28;20524;-63
2022/06/04 06:34:48;;;;;;;5.70;5.30;;;17.20;99.90;;;;;;5038746;28;20474;-64
2022/06/04 06:37:18;;;;;;;7.00;6.40;;;17.30;99.90;;;;;;5020366;28;20994;-63
2022/06/04 06:39:45;;;;;;;6.97;6.37;;;17.40;99.90;;;;;;5032098;28;20526;-63
2022/06/04 06:42:14;;;;;;;6.17;5.60;;;17.60;99.90;;;;;;5020782;28;20530;-64
2022/06/04 06:44:43;;;;;;;6.87;6.37;;;17.70;99.90;;;;;;5040366;28;20742;-63
2022/06/04 06:47:10;;;;;;;6.83;6.23;;;18.00;99.90;;;;;;5033390;28;20892;-63
2022/06/04 06:49:38;;;;;;;7.00;6.30;;;18.30;99.90;;;;;;5040250;28;20462;-64
2022/06/04 06:52:06;;;;;;;9.43;6.40;;;18.40;99.90;;;;;;5033632;28;20475;-63
2022/06/04 06:54:35;;;;;;;6.23;5.83;;;18.60;99.90;;;;;;5039667;28;20471;-62
2022/06/04 06:57:04;;;;;;;6.30;5.70;;;18.70;99.90;;;;;;5029958;28;20472;-62
2022/06/04 06:59:33;;;;;;;8.10;5.97;;;18.60;99.90;;;;;;5023121;28;20952;-62
2022/06/04 07:02:01;;;;;;;7.60;7.10;;;19.00;99.90;;;;;;5024736;28;20837;-62
2022/06/04 07:04:31;;;;;;;7.20;6.60;;;18.80;99.90;;;;;;5028003;28;20463;-62
2022/06/04 07:07:01;;;;;;;7.17;6.23;;;18.90;99.90;;;;;;5033369;28;20471;-62
2022/06/04 07:09:30;;;;;;;7.67;6.97;;;19.30;99.90;;;;;;5029282;28;20460;-62
2022/06/04 07:12:00;;;;;;;7.73;6.60;;;19.10;99.90;;;;;;5020304;28;20897;-62
2022/06/04 07:14:28;;;;;;;6.93;6.30;;;19.10;99.90;;;;;;5040118;28;20478;-61
2022/06/04 07:16:59;;;;;;;6.53;6.03;;;18.90;99.90;;;;;;5038436;28;20463;-62
2022/06/04 07:19:28;;;;;;;6.37;5.77;;;18.80;99.90;;;;;;5020027;28;20502;-62
2022/06/04 07:21:58;;;;;;;7.03;6.33;;;18.90;99.90;;;;;;5019069;28;20467;-63
2022/06/04 07:24:26;;;;;;;7.03;6.43;;;19.30;99.90;;;;;;5018578;28;20464;-63
2022/06/04 07:26:53;;;;;;;7.77;7.10;;;19.50;99.90;;;;;;5036247;28;20463;-62
2022/06/04 07:29:21;;;;;;;7.30;6.73;;;19.70;99.90;;;;;;5031410;28;20464;-62
2022/06/04 07:31:51;;;;;;;6.10;5.60;;;19.70;99.90;;;;;;5019071;28;20468;-62
2022/06/04 07:34:21;;;;;;;7.60;7.07;;;19.60;99.90;;;;;;5024484;28;20495;-61
2022/06/04 07:36:48;;;;;;;7.33;6.60;;;19.60;99.90;;;;;;5039063;28;20509;-63
2022/06/04 07:39:20;;;;;;;7.67;7.03;;;19.60;99.90;;;;;;5024953;28;20553;-63
2022/06/04 07:41:51;;;;;;;7.63;6.93;;;20.10;99.90;;;;;;5019290;28;20877;-63
2022/06/04 07:44:19;;;;;;;7.60;6.90;;;20.50;99.90;;;;;;5017885;28;20472;-63
2022/06/04 07:46:48;;;;;;;7.77;7.07;;;20.80;99.90;;;;;;5024170;28;20463;-63
2022/06/04 07:49:15;;;;;;;6.73;6.27;;;21.00;99.90;;;;;;5027675;28;20782;-63
2022/06/04 07:51:45;;;;;;;7.23;6.63;;;20.70;99.90;;;;;;5030086;28;20474;-63
2022/06/04 07:54:14;;;;;;;7.23;6.63;;;20.40;99.90;;;;;;5023958;28;20474;-62
2022/06/04 07:56:44;;;;;;;6.13;5.63;;;20.50;99.90;;;;;;5035591;28;20450;-63
2022/06/04 07:59:15;;;;;;;7.60;6.17;;;20.80;99.90;;;;;;5035229;28;20785;-63
2022/06/04 08:01:46;;;;;;;7.27;6.77;;;20.90;99.90;;;;;;5037099;28;20868;-63
2022/06/04 08:04:14;;;;;;;8.90;7.20;;;20.70;99.90;;;;;;5026784;28;20468;-63
2022/06/04 08:06:41;;;;;;;6.80;6.40;;;20.70;99.90;;;;;;5027790;28;20463;-63
2022/06/04 08:09:10;;;;;;;8.67;7.10;;;20.10;99.90;;;;;;5037523;28;20469;-63
2022/06/04 08:11:38;;;;;;;7.30;6.70;;;20.10;99.90;;;;;;5033224;28;20463;-63
2022/06/04 08:14:11;;;;;;;7.77;7.17;;;20.40;99.90;;;;;;5032784;28;20464;-63
2022/06/04 08:16:45;;;;;;;7.30;6.70;;;20.60;99.90;;;;;;4999341;28;20768;-63
2022/06/04 08:19:12;;;;;;;7.97;7.20;;;20.60;99.90;;;;;;5012258;28;20784;-63
2022/06/04 08:21:41;;;;;;;7.57;6.97;;;20.60;99.90;;;;;;5019948;28;20920;-63
2022/06/04 08:24:11;;;;;;;8.37;7.10;;;20.60;99.90;;;;;;5026846;28;20463;-63
2022/06/04 08:26:38;;;;;;;7.50;7.00;;;20.70;99.90;;;;;;5018216;28;20467;-63
2022/06/04 08:29:06;;;;;;;7.53;6.87;;;20.70;99.90;;;;;;5035739;28;20911;-63
2022/06/04 08:31:36;;;;;;;6.90;6.40;;;20.70;99.90;;;;;;5027794;28;21506;-63
2022/06/04 08:34:09;;;;;;;8.50;7.80;;;20.60;99.90;;;;;;5023776;28;20492;-65
2022/06/04 08:36:37;;;;;;;7.83;7.23;;;20.80;99.90;;;;;;5027574;28;20459;-64
2022/06/04 08:39:05;;;;;;;7.57;7.00;;;21.00;99.90;;;;;;5038047;28;20522;-64
2022/06/04 08:41:48;;;;;;;8.90;8.10;;;21.20;99.90;;;;;;5029023;28;20476;-63
2022/06/04 08:44:19;;;;;;;7.87;7.17;;;21.30;99.90;;;;;;5021922;28;20872;-63
2022/06/04 08:46:51;;;;;;;8.70;7.93;;;21.30;99.90;;;;;;5021461;28;20913;-64
2022/06/04 08:49:29;;;;;;;7.93;7.33;;;21.30;99.90;;;;;;5029424;28;20466;-63
2022/06/04 08:51:58;;;;;;;8.20;7.50;;;21.20;99.90;;;;;;5029195;28;20936;-63
2022/06/04 09:00:06;;;;;;;8.57;7.87;;;21.00;99.90;;;;;;5028326;28;20498;-63
2022/06/04 09:02:58;;;;;;;9.03;8.20;;;21.20;99.90;;;;;;5032714;28;20524;-64
2022/06/04 09:05:39;;;;;;;8.20;7.47;;;21.40;99.90;;;;;;5012965;28;20569;-63
2022/06/04 09:08:13;;;;;;;9.30;8.50;;;21.40;99.90;;;;;;5037324;28;20764;-64
2022/06/04 09:10:43;;;;;;;9.87;8.77;;;22.00;99.90;;;;;;5026961;28;20917;-63
2022/06/04 09:13:21;;;;;;;7.80;7.20;;;22.60;99.90;;;;;;5017682;28;20463;-63
2022/06/04 09:15:52;;;;;;;8.57;7.67;;;22.90;99.90;;;;;;5020247;28;20475;-63
2022/06/04 09:18:27;;;;;;;8.70;7.90;;;23.40;99.90;;;;;;5021388;28;20495;-63
2022/06/04 09:20:56;;;;;;;8.63;7.77;;;23.40;99.90;;;;;;5024471;28;20482;-65
2022/06/04 09:23:30;;;;;;;9.10;8.07;;;22.90;99.90;;;;;;5024046;28;20835;-65
2022/06/04 09:26:03;;;;;;;8.60;8.00;;;22.60;99.90;;;;;;5029809;28;20459;-64
2022/06/04 09:28:44;;;;;;;8.57;7.77;;;22.70;99.90;;;;;;5031004;28;20466;-63
2022/06/04 09:31:28;;;;;;;8.57;7.77;;;22.50;99.90;;;;;;5011132;28;20494;-65
2022/06/04 09:33:59;;;;;;;8.67;8.07;;;23.30;99.90;;;;;;5028444;28;20792;-61
2022/06/04 09:36:33;;;;;;;8.73;8.03;;;23.40;99.90;;;;;;5027520;28;20467;-60
2022/06/04 09:39:04;;;;;;;9.47;7.40;;;22.90;99.90;;;;;;5035862;28;20931;-60
2022/06/04 09:41:33;;;;;;;7.70;7.00;;;22.80;99.90;;;;;;5016974;28;20468;-60
2022/06/04 09:44:07;;;;;;;9.27;8.17;;;22.90;99.90;;;;;;5016450;28;20460;-61
2022/06/04 09:46:37;;;;;;;8.60;7.90;;;22.70;99.90;;;;;;5016886;28;20463;-61
2022/06/04 09:49:19;;;;;;;9.07;8.17;;;22.70;99.90;;;;;;5027014;28;20806;-61
2022/06/04 09:51:47;;;;;;;9.27;8.40;;;22.70;99.90;;;;;;5019428;28;20460;-62
2022/06/04 09:54:30;;;;;;;8.57;7.87;;;22.60;99.90;;;;;;5032643;28;20533;-60
2022/06/04 09:57:02;;;;;;;9.23;7.87;;;22.60;99.90;;;;;;5021128;28;20496;-60
2022/06/04 09:59:34;;;;;;;7.80;7.17;;;22.70;99.90;;;;;;5035624;28;20494;-62
2022/06/04 10:02:14;;;;;;;8.60;8.00;;;22.80;99.90;;;;;;5031429;28;20474;-62
2022/06/04 10:04:44;;;;;;;8.70;7.87;;;23.10;99.90;;;;;;5034586;28;20459;-60
2022/06/04 10:07:18;;;;;;;8.30;7.70;;;23.20;99.90;;;;;;5016442;28;20463;-60
2022/06/04 10:10:01;;;;;;;8.63;8.00;;;23.10;99.90;;;;;;5020018;28;20550;-61
2022/06/04 10:15:31;;;;;;;8.67;7.87;;;22.70;99.90;;;;;;5020577;28;20762;-62
2022/06/04 10:18:06;;;;;;;7.90;7.30;;;23.10;99.90;;;;;;5028407;28;20440;-61
2022/06/04 10:20:33;;;;;;;9.03;8.20;;;23.30;99.90;;;;;;5033568;28;20507;-61
2022/06/04 10:23:01;;;;;;;8.80;8.03;;;23.30;99.90;;;;;;5017953;28;20562;-60
2022/06/04 10:25:41;;;;;;;8.83;7.97;;;23.00;99.90;;;;;;5021915;28;20460;-61
2022/06/04 10:28:24;;;;;;;9.23;8.53;;;22.70;99.90;;;;;;5019326;28;20459;-61
2022/06/04 10:31:02;;;;;;;10.40;9.37;;;23.00;99.90;;;;;;5026327;28;20889;-60
2022/06/04 10:33:41;;;;;;;9.90;9.03;;;23.10;99.90;;;;;;5020457;28;20513;-61
2022/06/04 10:36:30;;;;;;;10.00;9.00;;;23.30;99.90;;;;;;5020003;28;20551;-60
2022/06/04 10:39:09;;;;;;;9.43;8.60;;;23.20;99.90;;;;;;5025612;28;20499;-61
2022/06/04 10:41:44;;;;;;;9.47;8.67;;;23.30;99.90;;;;;;5031373;28;20455;-63
2022/06/04 10:44:36;;;;;;;8.43;7.80;;;23.60;99.90;;;;;;5034099;28;20473;-61
2022/06/04 10:47:13;;;;;;;7.57;7.07;;;24.10;99.90;;;;;;5035632;28;20516;-61
2022/06/04 10:49:52;;;;;;;9.67;8.77;;;24.80;99.90;;;;;;5017489;28;20889;-63
2022/06/04 10:52:25;;;;;;;7.87;7.27;;;25.10;99.90;;;;;;5016570;28;20480;-62
2022/06/04 10:54:57;;;;;;;8.93;8.20;;;25.60;99.90;;;;;;5018173;28;20456;-61
2022/06/04 10:57:30;;;;;;;8.60;7.80;;;26.00;99.90;;;;;;5019319;28;20893;-62
2022/06/04 11:00:04;;;;;;;8.73;7.87;;;26.30;99.90;;;;;;5027781;28;20873;-63
2022/06/04 11:02:40;;;;;;;8.47;7.77;;;26.00;99.90;;;;;;5019678;28;20470;-62
2022/06/04 11:05:17;;;;;;;7.03;6.53;;;26.40;99.90;;;;;;5032133;28;20462;-62
2022/06/04 11:07:53;;;;;;;9.70;8.90;;;26.50;99.90;;;;;;5038639;28;20775;-63
2022/06/04 11:10:24;;;;;;;8.33;7.30;;;26.50;99.90;;;;;;4999879;28;20747;-62
2022/06/04 11:12:57;;;;;;;8.20;7.70;;;26.70;99.90;;;;;;5014285;28;20784;-62
2022/06/04 11:15:29;;;;;;;7.97;7.40;;;26.70;99.90;;;;;;5029168;28;20448;-61
2022/06/04 11:18:04;;;;;;;9.27;8.37;;;26.60;99.90;;;;;;5019216;28;20483;-64
2022/06/04 11:20:34;;;;;;;8.73;8.00;;;26.60;99.90;;;;;;5016967;28;20541;-63
2022/06/04 11:23:27;;;;;;;8.50;7.90;;;26.60;99.90;;;;;;5019180;28;20468;-62
2022/06/04 11:26:02;;;;;;;8.00;7.30;;;26.30;99.90;;;;;;5017312;28;20962;-61
2022/06/04 11:28:34;;;;;;;8.00;7.30;;;26.30;99.90;;;;;;5017997;28;20541;-63
2022/06/04 11:31:14;;;;;;;7.00;6.50;;;26.80;99.90;;;;;;5014241;28;20443;-62
2022/06/04 11:34:23;;;;;;;8.53;7.83;;;26.30;99.90;;;;;;5017613;28;20566;-61
2022/06/04 11:37:05;;;;;;;7.90;6.93;;;26.80;99.90;;;;;;4978272;28;20966;-64
2022/06/04 11:40:00;;;;;;;7.50;6.80;;;27.50;99.90;;;;;;5017808;28;20578;-62
2022/06/04 11:42:38;;;;;;;7.33;6.83;;;27.60;99.90;;;;;;5017774;28;20495;-61
2022/06/04 11:45:29;;;;;;;7.73;6.73;;;27.00;99.90;;;;;;5015973;28;20956;-61
2022/06/04 11:48:08;;;;;;;7.20;6.60;;;27.50;99.90;;;;;;5017174;28;20479;-61
2022/06/04 11:50:46;;;;;;;7.90;7.40;;;27.70;99.90;;;;;;5016579;28;20525;-60
2022/06/04 11:53:23;;;;;;;8.67;7.83;;;27.20;99.90;;;;;;5017658;28;20456;-61
2022/06/04 11:55:54;;;;;;;6.17;5.60;;;27.30;99.90;;;;;;5015669;28;20464;-61
2022/06/04 11:58:56;;;;;;;6.40;5.90;;;27.60;99.90;;;;;;5020521;28;20472;-62
2022/06/04 12:01:37;;;;;;;7.30;6.70;;;28.60;99.90;;;;;;5016232;28;20463;-61
2022/06/04 12:04:15;;;;;;;8.20;6.83;;;28.60;99.90;;;;;;5016237;28;20471;-61
2022/06/04 12:06:51;;;;;;;7.10;6.57;;;28.60;99.90;;;;;;5023367;28;20876;-61
2022/06/04 12:09:28;;;;;;;5.83;5.33;;;28.50;99.90;;;;;;5016735;28;20558;-61
2022/06/04 12:12:03;;;;;;;7.43;6.77;;;29.00;99.90;;;;;;5017328;28;20761;-61
2022/06/04 12:14:40;;;;;;;6.47;6.07;;;29.20;99.90;;;;;;5015298;28;20460;-63
2022/06/04 12:17:15;;;;;;;7.03;6.43;;;29.30;99.90;;;;;;5017299;28;20495;-63
2022/06/04 12:25:38;;;;;;;5.47;5.07;;;28.50;99.90;;;;;;5015591;28;20466;-60
2022/06/04 12:28:22;;;;;;;7.03;5.53;;;29.50;99.90;;;;;;5016759;28;20448;-61
2022/06/04 12:30:49;;;;;;;5.73;5.33;;;29.60;99.90;;;;;;5016370;28;20456;-61
2022/06/04 12:33:35;;;;;;;6.57;6.10;;;29.80;99.90;;;;;;5015485;28;20487;-60
2022/06/04 12:36:06;;;;;;;7.40;6.70;;;28.80;99.90;;;;;;5018364;28;20459;-60
2022/06/04 12:38:38;;;;;;;5.20;4.80;;;28.60;99.90;;;;;;5018238;28;20471;-62
2022/06/04 12:41:12;;;;;;;8.73;5.80;;;28.50;99.90;;;;;;5017120;28;20546;-61
2022/06/04 12:43:41;;;;;;;6.00;5.47;;;27.80;99.90;;;;;;5018246;28;20522;-60
2022/06/04 12:46:33;;;;;;;6.57;6.07;;;28.20;99.90;;;;;;5014119;28;20452;-61
2022/06/04 12:49:07;;;;;;;5.57;5.13;;;28.90;99.90;;;;;;5018610;28;20467;-61
2022/06/04 12:51:48;;;;;;;6.50;6.00;;;29.20;99.90;;;;;;5020424;28;20467;-60
2022/06/04 12:54:43;;;;;;;6.50;5.30;;;28.60;99.90;;;;;;5020012;28;20502;-62
2022/06/04 12:57:28;;;;;;;6.03;5.30;;;28.80;99.90;;;;;;5016299;28;20783;-62
2022/06/04 13:00:23;;;;;;;7.90;5.90;;;28.80;99.90;;;;;;5015345;28;20496;-61
2022/06/04 13:03:01;;;;;;;7.03;6.10;;;29.40;99.90;;;;;;5000058;28;20547;-61
2022/06/04 13:05:29;;;;;;;6.60;6.00;;;29.20;99.90;;;;;;5016917;28;20487;-61
2022/06/04 13:08:10;;;;;;;5.37;4.97;;;28.90;99.90;;;;;;5014049;28;20927;-61
2022/06/04 13:10:53;;;;;;;5.73;5.30;;;29.00;99.90;;;;;;4998395;28;20464;-61
2022/06/04 13:13:38;;;;;;;5.67;5.23;;;28.70;99.90;;;;;;5014377;28;20565;-62
2022/06/04 13:16:18;;;;;;;5.87;5.40;;;29.10;99.90;;;;;;5016821;28;20913;-61
2022/06/04 13:19:03;;;;;;;6.60;6.07;;;29.30;99.90;;;;;;5026354;28;20477;-60
2022/06/04 13:21:32;;;;;;;5.90;5.40;;;29.40;99.90;;;;;;5022817;28;20490;-61
2022/06/04 13:24:04;;;;;;;6.00;5.50;;;29.40;99.90;;;;;;5033184;28;20923;-61
2022/06/04 13:26:38;;;;;;;4.97;4.50;;;29.10;99.90;;;;;;5029835;28;20466;-61
2022/06/04 13:29:22;;;;;;;6.30;5.70;;;29.00;99.90;;;;;;5020804;28;20456;-61
2022/06/04 13:31:56;;;;;;;5.20;4.80;;;29.10;99.90;;;;;;5012671;28;20473;-62
2022/06/04 13:34:25;;;;;;;6.03;5.50;;;29.60;99.90;;;;;;5021076;28;20792;-61
2022/06/04 13:36:59;;;;;;;5.93;5.43;;;29.50;99.90;;;;;;5015666;28;20515;-61
2022/06/04 13:39:29;;;;;;;6.13;5.63;;;29.20;99.90;;;;;;5022089;28;20889;-61